Time;durP1;ratioP1;P1;durP2;ratioP2;P2;SDS_P1;SDS_P2;PMS_P1;PMS_P2;Temp;Humidity;BMP_temperature;BMP_pressure;BME280_temperature;BME280_humidity;BME280_pressure;Samples;Min_cycle;Max_cycle;Signal;HPM_P1;HPM_P2
2021/08/23 00:01:54;;;;;;;20.90;5.85;;;;;;;20.06;59.28;101218.14;1763458;79;20993;-63
2021/08/23 00:04:21;;;;;;;16.97;5.75;;;;;;;20.08;59.32;101218.39;1809311;79;21068;-62
2021/08/23 00:06:47;;;;;;;21.25;5.97;;;;;;;20.10;59.43;101219.67;1812957;79;21604;-63
2021/08/23 00:09:14;;;;;;;23.32;5.42;;;;;;;20.13;59.11;101218.09;1769724;79;21862;-61
2021/08/23 00:11:41;;;;;;;23.92;6.37;;;;;;;20.15;59.02;101221.58;1775287;79;21085;-63
2021/08/23 00:14:10;;;;;;;23.25;6.28;;;;;;;20.16;58.84;101220.60;1795140;79;21063;-63
2021/08/23 00:16:37;;;;;;;21.48;5.70;;;;;;;20.17;58.88;101216.91;1797310;79;21041;-63
2021/08/23 00:19:06;;;;;;;23.95;6.55;;;;;;;20.18;58.56;101220.89;1789267;79;20976;-62
2021/08/23 00:21:41;;;;;;;28.85;6.80;;;;;;;20.17;58.80;101227.79;1770429;79;21489;-63
2021/08/23 00:24:17;;;;;;;20.12;7.03;;;;;;;20.13;59.11;101224.90;1785892;79;20993;-63
2021/08/23 00:26:37;;;;;;;19.60;6.47;;;;;;;20.08;59.26;101227.06;1766945;79;20999;-63
2021/08/23 00:29:04;;;;;;;21.68;6.85;;;;;;;19.99;59.69;101219.89;1769401;80;21016;-63
2021/08/23 00:31:33;;;;;;;22.13;6.58;;;;;;;19.92;59.97;101228.09;1775857;80;20992;-62
2021/08/23 00:34:00;;;;;;;20.90;7.30;;;;;;;19.84;60.30;101225.00;1774919;80;21660;-63
2021/08/23 00:36:27;;;;;;;22.20;6.70;;;;;;;19.78;60.64;101227.63;1770223;80;21046;-62
2021/08/23 00:38:55;;;;;;;14.73;6.78;;;;;;;19.72;60.77;101226.69;1763525;80;21065;-62
2021/08/23 00:41:23;;;;;;;30.52;7.17;;;;;;;19.66;60.82;101236.11;1790837;79;21008;-62
2021/08/23 00:43:50;;;;;;;23.00;7.00;;;;;;;19.59;60.97;101227.48;1787456;79;21020;-62
2021/08/23 00:46:19;;;;;;;24.90;7.40;;;;;;;19.55;61.09;101230.02;1783165;79;21210;-63
2021/08/23 00:48:46;;;;;;;20.65;6.62;;;;;;;19.51;61.43;101230.31;1791204;79;21119;-62
2021/08/23 00:51:14;;;;;;;20.48;6.75;;;;;;;19.46;61.58;101227.41;1791729;78;21089;-62
2021/08/23 00:53:41;;;;;;;23.15;6.67;;;;;;;19.42;61.84;101235.39;1780681;79;21506;-62
2021/08/23 00:56:08;;;;;;;14.95;6.40;;;;;;;19.39;62.02;101227.91;1786110;78;21039;-62
2021/08/23 00:58:35;;;;;;;16.97;6.20;;;;;;;19.35;62.19;101224.53;1797126;78;21124;-62
2021/08/23 01:01:06;;;;;;;14.20;5.67;;;;;;;19.32;62.29;101226.06;1794520;79;21022;-62
2021/08/23 01:03:38;;;;;;;18.17;6.33;;;;;;;19.29;62.46;101224.91;1798022;79;21479;-63
2021/08/23 01:06:07;;;;;;;18.65;6.00;;;;;;;19.27;62.58;101232.30;1789521;79;21016;-62
2021/08/23 01:08:39;;;;;;;18.67;6.12;;;;;;;19.25;62.69;101226.98;1774752;79;21064;-63
2021/08/23 01:11:11;;;;;;;18.70;6.22;;;;;;;19.24;62.84;101228.42;1792527;79;21166;-63
2021/08/23 01:13:45;;;;;;;21.50;6.25;;;;;;;19.21;63.11;101225.91;1782196;79;21609;-63
2021/08/23 01:16:12;;;;;;;16.93;6.05;;;;;;;19.14;63.41;101223.59;1770949;79;21045;-63
2021/08/23 01:18:40;;;;;;;21.10;5.85;;;;;;;19.12;63.65;101222.81;1788848;79;21418;-63
2021/08/23 01:21:08;;;;;;;20.37;5.42;;;;;;;19.10;63.78;101223.37;1791034;79;21084;-63
2021/08/23 01:23:37;;;;;;;29.95;6.80;;;;;;;19.06;63.97;101218.25;1796953;79;21984;-63
2021/08/23 01:26:04;;;;;;;21.75;6.62;;;;;;;19.02;64.10;101221.63;1784938;79;21533;-62
2021/08/23 01:28:43;;;;;;;20.23;6.40;;;;;;;19.00;64.25;101227.16;1783170;79;21464;-58
2021/08/23 01:31:22;;;;;;;23.52;6.55;;;;;;;18.98;64.35;101225.48;1790473;79;20977;-62
2021/08/23 01:33:49;;;;;;;27.05;6.40;;;;;;;18.92;64.46;101217.73;1788435;79;20998;-62
2021/08/23 01:36:16;;;;;;;20.65;6.05;;;;;;;18.88;64.63;101221.97;1790775;79;21125;-62
2021/08/23 01:38:43;;;;;;;17.27;6.20;;;;;;;18.85;64.76;101214.02;1788247;78;22028;-62
2021/08/23 01:41:10;;;;;;;17.73;5.75;;;;;;;18.82;64.89;101218.30;1786308;78;21048;-62
2021/08/23 01:43:37;;;;;;;20.60;5.72;;;;;;;18.77;64.97;101215.00;1810324;77;21017;-62
2021/08/23 01:46:04;;;;;;;23.83;6.35;;;;;;;18.70;65.31;101219.08;1798047;78;21458;-62
2021/08/23 01:48:32;;;;;;;20.97;6.03;;;;;;;18.66;65.48;101218.84;1801248;77;21967;-62
2021/08/23 01:51:00;;;;;;;34.95;7.65;;;;;;;18.63;65.59;101216.33;1810274;77;21024;-62
2021/08/23 01:53:27;;;;;;;12.53;5.80;;;;;;;18.63;65.67;101219.05;1794602;79;21053;-62
2021/08/23 01:56:06;;;;;;;29.75;6.08;;;;;;;18.61;65.70;101215.94;1792304;77;21052;-62
2021/08/23 01:58:33;;;;;;;19.92;5.97;;;;;;;18.58;65.84;101225.64;1797894;77;21037;-62
2021/08/23 02:01:00;;;;;;;22.58;6.30;;;;;;;18.56;66.07;101230.30;1724528;81;21151;-62
2021/08/23 02:03:27;;;;;;;23.40;6.75;;;;;;;18.54;66.15;101226.80;1799820;78;21012;-63
2021/08/23 02:05:56;;;;;;;15.53;6.08;;;;;;;18.51;66.31;101225.64;1797744;79;21080;-62
2021/08/23 02:08:23;;;;;;;21.17;5.83;;;;;;;18.49;66.31;101219.43;1803327;78;21092;-62
2021/08/23 02:10:51;;;;;;;13.43;6.22;;;;;;;18.48;66.33;101219.05;1805240;78;21514;-61
2021/08/23 02:13:18;;;;;;;20.10;6.08;;;;;;;18.44;66.45;101215.63;1809210;79;21123;-61
2021/08/23 02:15:46;;;;;;;16.57;6.12;;;;;;;18.40;66.62;101210.47;1802465;78;21059;-62
2021/08/23 02:18:14;;;;;;;17.27;5.62;;;;;;;18.35;66.87;101214.84;1794432;78;21092;-62
2021/08/23 02:20:43;;;;;;;20.37;6.28;;;;;;;18.32;67.07;101219.08;1799151;79;21727;-62
2021/08/23 02:23:10;;;;;;;20.43;6.25;;;;;;;18.27;67.29;101221.20;1805586;79;21601;-62
2021/08/23 02:25:37;;;;;;;18.32;6.67;;;;;;;18.24;67.43;101220.92;1803463;79;21028;-62
2021/08/23 02:28:04;;;;;;;15.30;6.35;;;;;;;18.22;67.69;101217.39;1800576;79;21060;-62
2021/08/23 02:30:31;;;;;;;22.22;6.25;;;;;;;18.20;67.88;101223.40;1802087;77;21046;-64
2021/08/23 02:32:58;;;;;;;24.90;6.10;;;;;;;18.17;67.97;101228.55;1807240;78;21095;-62
2021/08/23 02:35:28;;;;;;;24.70;6.65;;;;;;;18.15;68.19;101229.13;1803614;79;21038;-62
2021/08/23 02:37:55;;;;;;;18.00;6.45;;;;;;;18.11;68.43;101237.53;1793218;79;21584;-62
2021/08/23 02:40:22;;;;;;;17.40;6.28;;;;;;;18.06;68.63;101223.37;1786541;79;21041;-61
2021/08/23 02:42:49;;;;;;;15.78;6.45;;;;;;;18.03;68.83;101230.73;1783925;79;21093;-62
2021/08/23 02:45:16;;;;;;;14.53;6.05;;;;;;;18.01;69.13;101238.05;1794700;79;21538;-62
2021/08/23 02:47:43;;;;;;;15.58;7.05;;;;;;;17.97;69.40;101238.31;1790579;79;21029;-62
2021/08/23 02:50:11;;;;;;;21.00;7.37;;;;;;;17.90;69.68;101240.03;1791069;78;21103;-62
2021/08/23 02:52:38;;;;;;;27.00;7.35;;;;;;;17.86;70.10;101236.23;1787911;79;20930;-62
2021/08/23 02:55:06;;;;;;;26.87;6.60;;;;;;;17.81;70.29;101235.62;1797945;79;21052;-62
2021/08/23 02:57:33;;;;;;;29.80;6.90;;;;;;;17.76;70.61;101247.59;1792343;78;21474;-62
2021/08/23 03:00:00;;;;;;;15.10;5.85;;;;;;;17.74;70.78;101249.52;1780247;78;21287;-62
2021/08/23 03:02:27;;;;;;;19.27;6.97;;;;;;;17.73;70.90;101254.55;1776622;79;21928;-62
2021/08/23 03:04:55;;;;;;;16.70;5.47;;;;;;;17.71;70.97;101255.62;1801793;79;21445;-63
2021/08/23 03:07:22;;;;;;;22.07;6.33;;;;;;;17.66;71.18;101247.73;1797790;79;20945;-63
2021/08/23 03:09:49;;;;;;;15.53;6.03;;;;;;;17.65;71.32;101249.17;1785752;79;21048;-63
2021/08/23 03:12:16;;;;;;;21.45;6.60;;;;;;;17.65;71.28;101255.95;1782925;79;21037;-63
2021/08/23 03:14:43;;;;;;;12.82;5.85;;;;;;;17.64;71.41;101259.16;1792696;79;22146;-63
2021/08/23 03:17:10;;;;;;;13.70;6.70;;;;;;;17.65;71.55;101263.61;1786633;79;21017;-63
2021/08/23 03:19:37;;;;;;;21.80;6.47;;;;;;;17.64;71.72;101259.16;1793668;79;21104;-63
2021/08/23 03:22:04;;;;;;;24.35;6.35;;;;;;;17.63;71.88;101264.66;1787051;79;21033;-63
2021/08/23 03:24:32;;;;;;;17.15;6.35;;;;;;;17.63;71.99;101268.72;1787990;79;21439;-63
2021/08/23 03:26:58;;;;;;;17.42;6.97;;;;;;;17.60;72.16;101261.66;1796790;79;21742;-63
2021/08/23 03:29:25;;;;;;;21.25;6.72;;;;;;;17.58;72.29;101262.22;1785863;79;20997;-63
2021/08/23 03:31:53;;;;;;;18.70;6.70;;;;;;;17.59;72.35;101262.62;1716707;82;21127;-62
2021/08/23 03:34:21;;;;;;;17.62;6.42;;;;;;;17.61;72.34;101264.26;1731852;81;21048;-62
2021/08/23 03:36:49;;;;;;;15.15;6.55;;;;;;;17.64;72.35;101263.22;1787892;78;21023;-62
2021/08/23 03:39:17;;;;;;;26.70;6.97;;;;;;;17.69;72.29;101267.89;1783717;79;21529;-62
2021/08/23 03:41:43;;;;;;;20.68;6.53;;;;;;;17.76;72.03;101273.84;1788139;79;21029;-62
2021/08/23 03:44:10;;;;;;;19.35;6.83;;;;;;;17.81;71.89;101270.89;1775906;79;21076;-62
2021/08/23 03:46:39;;;;;;;18.73;6.37;;;;;;;17.86;71.64;101269.63;1776859;79;20953;-63
2021/08/23 03:49:06;;;;;;;20.52;5.72;;;;;;;17.96;71.34;101267.27;1793249;78;21095;-62
2021/08/23 03:51:33;;;;;;;20.43;6.78;;;;;;;18.03;70.81;101270.06;1795430;79;21550;-62
2021/08/23 03:54:00;;;;;;;17.77;6.92;;;;;;;18.10;70.30;101260.20;1779839;79;20921;-62
2021/08/23 03:56:28;;;;;;;17.55;7.10;;;;;;;18.13;70.11;101262.73;1780940;79;21024;-62
2021/08/23 03:58:55;;;;;;;16.45;6.12;;;;;;;18.18;70.00;101257.89;1793019;79;20980;-62
2021/08/23 04:01:22;;;;;;;14.45;6.50;;;;;;;18.25;69.82;101267.45;1785139;78;20956;-63
2021/08/23 04:03:50;;;;;;;14.33;6.83;;;;;;;18.36;69.74;101267.27;1783633;79;21094;-62
2021/08/23 04:06:17;;;;;;;22.67;7.30;;;;;;;18.47;69.42;101268.88;1781287;79;21537;-61
2021/08/23 04:08:44;;;;;;;14.63;6.80;;;;;;;18.58;69.21;101274.52;1780563;79;21199;-63
2021/08/23 04:11:15;;;;;;;16.50;7.28;;;;;;;18.66;68.94;101275.88;1787790;79;21021;-65
2021/08/23 04:13:43;;;;;;;26.90;7.33;;;;;;;18.74;68.69;101270.38;1760220;79;21475;-62
2021/08/23 04:16:20;;;;;;;31.42;8.40;;;;;;;18.83;68.39;101277.09;1760163;79;21202;-62
2021/08/23 04:18:51;;;;;;;27.25;7.92;;;;;;;18.92;68.07;101272.92;1755406;80;21045;-63
2021/08/23 04:21:18;;;;;;;22.27;8.38;;;;;;;19.02;67.26;101271.91;1759692;81;21263;-62
2021/08/23 04:23:45;;;;;;;29.25;7.30;;;;;;;19.09;66.89;101277.33;1757163;81;21124;-63
2021/08/23 04:26:12;;;;;;;17.70;7.05;;;;;;;19.16;66.61;101278.72;1762793;80;21069;-63
2021/08/23 04:28:39;;;;;;;16.57;7.05;;;;;;;19.24;66.36;101277.34;1738203;81;22373;-62
2021/08/23 04:31:06;;;;;;;14.68;6.62;;;;;;;19.31;65.28;101275.97;1758396;81;21025;-63
2021/08/23 04:33:33;;;;;;;20.50;6.87;;;;;;;19.38;65.15;101280.07;1745159;81;21115;-63
2021/08/23 04:36:00;;;;;;;29.42;9.25;;;;;;;19.49;64.67;101279.38;1762227;79;21116;-63
2021/08/23 04:38:27;;;;;;;30.35;9.55;;;;;;;19.60;64.37;101275.97;1746432;81;21088;-63
2021/08/23 04:40:54;;;;;;;20.92;9.40;;;;;;;19.72;64.02;101276.50;1761770;81;21114;-63
2021/08/23 04:43:21;;;;;;;26.62;7.47;;;;;;;19.87;63.54;101272.40;1758826;79;21017;-63
2021/08/23 04:45:48;;;;;;;21.93;8.03;;;;;;;20.02;62.65;101280.95;1762223;79;21056;-63
2021/08/23 04:48:15;;;;;;;26.05;7.92;;;;;;;20.17;61.99;101272.70;1752996;79;21549;-62
2021/08/23 04:50:42;;;;;;;21.85;7.62;;;;;;;20.32;61.64;101276.23;1753757;81;21475;-63
2021/08/23 04:53:09;;;;;;;23.70;7.45;;;;;;;20.44;61.00;101278.13;1743897;81;21114;-63
2021/08/23 04:55:40;;;;;;;20.62;7.50;;;;;;;20.56;60.90;101276.41;1751043;81;21569;-58
2021/08/23 04:58:07;;;;;;;29.37;7.62;;;;;;;20.71;60.59;101273.61;1754337;79;21108;-59
2021/08/23 05:00:34;;;;;;;25.85;8.33;;;;;;;20.86;60.35;101275.27;1759417;78;21440;-59
2021/08/23 05:03:01;;;;;;;21.40;7.42;;;;;;;21.03;60.06;101278.19;1752002;81;21073;-59
2021/08/23 05:05:28;;;;;;;31.10;6.28;;;;;;;21.20;59.14;101286.13;1751207;80;21116;-58
2021/08/23 05:07:55;;;;;;;21.75;7.50;;;;;;;21.32;58.21;101277.05;1750881;81;21093;-59
2021/08/23 05:10:23;;;;;;;28.02;7.25;;;;;;;21.46;57.64;101274.20;1757503;81;21096;-59
2021/08/23 05:12:55;;;;;;;29.20;7.65;;;;;;;21.62;57.22;101270.35;1762288;80;21049;-63
2021/08/23 05:15:24;;;;;;;29.92;7.37;;;;;;;21.79;56.59;101277.83;1764037;79;21052;-59
2021/08/23 05:17:52;;;;;;;25.52;6.67;;;;;;;21.92;56.35;101276.41;1745468;79;21122;-57
2021/08/23 05:20:19;;;;;;;19.35;6.92;;;;;;;22.05;56.00;101275.84;1742894;81;21526;-58
2021/08/23 05:22:46;;;;;;;33.53;7.42;;;;;;;22.22;55.96;101270.48;1755824;79;20996;-59
2021/08/23 05:25:15;;;;;;;23.60;6.37;;;;;;;22.41;55.23;101270.41;1755703;81;21037;-58
2021/08/23 05:27:42;;;;;;;31.25;7.25;;;;;;;22.56;54.68;101269.27;1724866;81;21531;-58
2021/08/23 05:30:11;;;;;;;26.57;7.78;;;;;;;22.72;54.74;101269.44;1756804;81;21506;-59
2021/08/23 05:32:39;;;;;;;28.32;7.85;;;;;;;22.84;54.48;101267.59;1755081;79;21423;-59
2021/08/23 05:35:08;;;;;;;29.12;6.90;;;;;;;22.99;54.47;101264.13;1755833;79;21105;-58
2021/08/23 05:37:35;;;;;;;26.97;6.22;;;;;;;23.22;53.63;101264.15;1756741;79;21459;-59
2021/08/23 05:40:02;;;;;;;24.40;5.65;;;;;;;23.43;52.72;101259.70;1754237;80;21028;-59
2021/08/23 05:42:29;;;;;;;28.67;4.87;;;;;;;23.74;50.95;101263.14;1741949;79;21573;-59
2021/08/23 05:44:57;;;;;;;29.40;5.08;;;;;;;24.09;49.10;101266.17;1750187;80;21095;-58
2021/08/23 05:47:24;;;;;;;18.85;5.75;;;;;;;24.36;47.94;101255.73;1747027;79;21119;-59
2021/08/23 05:49:51;;;;;;;20.20;3.60;;;;;;;24.56;47.03;101253.51;1760954;81;21041;-59
2021/08/23 05:52:18;;;;;;;15.35;3.02;;;;;;;24.75;45.79;101248.68;1752541;81;21584;-58
2021/08/23 05:54:46;;;;;;;10.17;2.33;;;;;;;24.86;45.43;101251.84;1752888;81;21065;-58
2021/08/23 05:57:13;;;;;;;11.63;2.20;;;;;;;24.92;43.86;101262.78;1744911;80;21123;-59
2021/08/23 05:59:40;;;;;;;8.10;1.60;;;;;;;24.92;42.22;101257.30;1757734;79;21108;-58
2021/08/23 06:02:07;;;;;;;6.45;1.80;;;;;;;24.86;41.88;101258.70;1719973;82;21471;-58
2021/08/23 06:04:35;;;;;;;4.17;1.52;;;;;;;24.85;41.39;101261.08;1730432;81;21014;-60
2021/08/23 06:07:03;;;;;;;5.40;1.92;;;;;;;24.89;41.85;101258.46;1748241;81;21480;-59
2021/08/23 06:09:30;;;;;;;2.30;1.45;;;;;;;24.99;41.81;101260.37;1729312;81;22249;-60
2021/08/23 06:11:57;;;;;;;4.67;1.60;;;;;;;25.13;41.13;101267.37;1762556;79;21033;-58
2021/08/23 06:14:26;;;;;;;4.53;1.52;;;;;;;25.21;40.86;101270.31;1761704;81;21554;-59
2021/08/23 06:16:53;;;;;;;3.83;1.80;;;;;;;25.22;40.21;101275.28;1747979;79;21119;-58
2021/08/23 06:19:20;;;;;;;3.72;1.80;;;;;;;25.21;40.68;101275.80;1749390;81;21517;-58
2021/08/23 06:21:48;;;;;;;6.25;1.60;;;;;;;25.23;40.98;101262.81;1752305;81;21024;-58
2021/08/23 06:24:15;;;;;;;4.03;1.72;;;;;;;25.27;40.25;101275.73;1753132;81;21554;-58
2021/08/23 06:26:43;;;;;;;2.62;1.50;;;;;;;25.27;40.52;101274.36;1751763;81;21040;-58
2021/08/23 06:29:10;;;;;;;4.83;1.72;;;;;;;25.24;40.00;101264.55;1758949;81;21036;-58
2021/08/23 06:31:39;;;;;;;6.03;1.50;;;;;;;25.25;40.82;101262.66;1753368;81;21459;-57
2021/08/23 06:34:07;;;;;;;6.40;1.90;;;;;;;25.30;41.33;101258.50;1745908;79;21077;-58
2021/08/23 06:36:35;;;;;;;4.62;1.70;;;;;;;25.28;40.97;101265.13;1757033;80;21013;-58
2021/08/23 06:39:04;;;;;;;7.10;1.80;;;;;;;25.25;41.26;101262.66;1749940;79;21060;-58
2021/08/23 06:41:31;;;;;;;4.03;1.98;;;;;;;25.31;41.32;101260.72;1767810;79;21035;-58
2021/08/23 06:43:58;;;;;;;5.45;2.15;;;;;;;25.36;41.54;101263.06;1753454;81;21118;-58
2021/08/23 06:46:25;;;;;;;6.65;1.98;;;;;;;25.32;41.31;101257.86;1759693;79;21038;-59
2021/08/23 06:48:53;;;;;;;5.60;2.00;;;;;;;25.35;40.91;101263.59;1760610;79;21068;-58
2021/08/23 06:51:21;;;;;;;4.25;1.87;;;;;;;25.39;41.70;101266.90;1754101;80;21486;-59
2021/08/23 06:53:48;;;;;;;4.87;1.85;;;;;;;25.40;41.90;101268.14;1759881;81;21070;-58
2021/08/23 06:56:18;;;;;;;4.42;2.00;;;;;;;25.35;42.10;101271.81;1759760;81;21564;-60
2021/08/23 06:58:45;;;;;;;10.68;2.55;;;;;;;25.31;42.85;101280.82;1755054;79;21019;-59
2021/08/23 07:01:15;;;;;;;7.08;1.82;;;;;;;25.32;42.71;101277.59;1756085;79;21454;-59
2021/08/23 07:03:41;;;;;;;4.87;2.05;;;;;;;25.29;42.67;101272.34;1767335;79;21029;-59
2021/08/23 07:06:08;;;;;;;7.05;2.15;;;;;;;25.24;43.66;101274.64;1787273;79;21013;-59
2021/08/23 07:08:35;;;;;;;5.33;2.25;;;;;;;25.24;43.94;101277.38;1787111;79;21530;-59
2021/08/23 07:11:02;;;;;;;3.75;2.17;;;;;;;25.25;44.10;101270.89;1784120;78;21005;-59
2021/08/23 07:13:31;;;;;;;6.35;1.98;;;;;;;25.24;43.58;101266.41;1755304;79;32821;-59
2021/08/23 07:15:58;;;;;;;3.37;2.37;;;;;;;25.18;44.33;101272.82;1797732;79;21464;-58
2021/08/23 07:18:27;;;;;;;5.83;2.30;;;;;;;25.22;44.86;101271.17;1788062;79;21016;-58
2021/08/23 07:20:54;;;;;;;4.53;2.15;;;;;;;25.30;44.57;101274.08;1782497;79;21414;-59
2021/08/23 07:23:24;;;;;;;6.80;2.90;;;;;;;25.35;44.08;101272.30;1794443;79;21018;-58
2021/08/23 07:25:51;;;;;;;6.65;2.33;;;;;;;25.36;43.99;101274.92;1720317;81;21049;-58
2021/08/23 07:28:18;;;;;;;3.30;2.27;;;;;;;25.37;44.25;101261.56;1745040;81;21858;-58
2021/08/23 07:30:46;;;;;;;5.78;2.45;;;;;;;25.36;44.34;101272.18;1757314;81;21116;-58
2021/08/23 07:33:16;;;;;;;6.67;2.60;;;;;;;25.37;44.45;101266.17;1758510;80;21537;-59
2021/08/23 07:35:44;;;;;;;4.70;2.58;;;;;;;25.37;45.04;101271.66;1722412;80;21020;-58
2021/08/23 07:38:12;;;;;;;5.87;2.27;;;;;;;25.38;44.82;101273.40;1756478;81;21091;-59
2021/08/23 07:40:42;;;;;;;4.37;2.37;;;;;;;25.33;44.14;101271.09;1745636;80;21008;-58
2021/08/23 07:43:10;;;;;;;5.40;2.25;;;;;;;25.36;43.92;101279.04;1742679;81;21085;-58
2021/08/23 07:45:38;;;;;;;5.97;2.37;;;;;;;25.31;43.74;101270.33;1798144;79;21205;-58
2021/08/23 07:48:06;;;;;;;4.28;2.00;;;;;;;25.27;44.02;101271.13;1794614;79;20993;-59
2021/08/23 07:50:34;;;;;;;3.90;2.15;;;;;;;25.30;43.11;101267.22;1798491;79;21001;-59
2021/08/23 07:53:01;;;;;;;4.60;2.10;;;;;;;25.31;43.58;101268.47;1804067;78;21008;-59
2021/08/23 07:55:28;;;;;;;3.67;1.92;;;;;;;25.32;43.62;101261.13;1798129;79;21036;-58
2021/08/23 07:57:55;;;;;;;4.60;2.65;;;;;;;25.43;44.13;101269.23;1785730;79;21148;-64
2021/08/23 08:00:23;;;;;;;4.15;2.30;;;;;;;25.53;43.53;101257.44;1788898;80;21008;-64
2021/08/23 08:02:50;;;;;;;9.83;2.22;;;;;;;25.58;43.52;101255.17;1788868;80;21111;-65
2021/08/23 08:05:17;;;;;;;3.17;2.05;;;;;;;25.60;43.01;101264.13;1766875;79;21076;-64
2021/08/23 08:07:44;;;;;;;3.22;1.90;;;;;;;25.57;42.77;101263.04;1789541;78;20972;-64
2021/08/23 08:10:13;;;;;;;4.97;2.30;;;;;;;25.54;41.63;101260.06;1789067;79;21004;-63
2021/08/23 08:12:42;;;;;;;5.95;1.72;;;;;;;25.51;43.24;101256.72;1789438;80;20988;-62
2021/08/23 08:15:10;;;;;;;3.85;1.90;;;;;;;25.51;42.70;101263.58;1788703;80;21040;-64
2021/08/23 08:17:37;;;;;;;5.78;1.90;;;;;;;25.54;42.71;101256.46;1789086;80;21453;-63
2021/08/23 08:20:07;;;;;;;15.35;2.00;;;;;;;25.61;42.78;101260.37;1788996;78;21068;-63
2021/08/23 08:22:34;;;;;;;6.53;1.67;;;;;;;25.70;43.04;101244.41;1789314;80;21781;-63
2021/08/23 08:25:00;;;;;;;2.62;1.80;;;;;;;25.79;41.14;101256.95;1788397;80;21067;-63
2021/08/23 08:27:28;;;;;;;2.90;1.47;;;;;;;25.81;42.48;101250.81;1788322;80;21004;-64
2021/08/23 08:29:55;;;;;;;7.15;1.95;;;;;;;25.86;41.73;101261.74;1789428;79;20921;-63
2021/08/23 08:32:22;;;;;;;3.87;1.57;;;;;;;25.93;41.35;101254.30;1788294;80;21011;-63
2021/08/23 08:34:49;;;;;;;4.53;1.80;;;;;;;26.01;41.09;101256.70;1788327;79;21493;-63
2021/08/23 08:37:16;;;;;;;3.20;1.52;;;;;;;26.06;41.12;101248.00;1776875;80;21048;-63
2021/08/23 08:39:43;;;;;;;2.80;1.57;;;;;;;26.14;40.46;101250.03;1789139;80;21504;-63
2021/08/23 08:42:11;;;;;;;5.17;1.47;;;;;;;26.19;40.00;101250.50;1794723;78;21096;-58
2021/08/23 08:44:39;;;;;;;6.58;1.70;;;;;;;26.26;39.52;101250.30;1789483;79;21059;-58
2021/08/23 08:47:06;;;;;;;13.35;1.80;;;;;;;26.33;38.49;101245.59;1780952;79;21115;-58
2021/08/23 08:49:35;;;;;;;11.55;1.98;;;;;;;26.37;38.81;101249.77;1774212;79;21049;-58
2021/08/23 08:52:06;;;;;;;12.10;1.60;;;;;;;26.47;38.74;101250.65;1797714;79;21044;-58
2021/08/23 08:54:33;;;;;;;7.08;1.90;;;;;;;26.51;38.74;101249.34;1746822;81;21478;-58
2021/08/23 08:57:02;;;;;;;14.55;2.10;;;;;;;26.50;39.18;101236.61;1785860;78;21143;-58
2021/08/23 08:59:29;;;;;;;19.23;2.33;;;;;;;26.56;38.96;101237.38;1797527;79;22124;-58
2021/08/23 09:01:57;;;;;;;11.53;2.10;;;;;;;26.70;38.52;101243.45;1790423;79;21048;-58
2021/08/23 09:04:30;;;;;;;10.85;1.90;;;;;;;26.81;38.13;101237.76;1783600;79;21504;-58
2021/08/23 09:06:58;;;;;;;11.45;1.98;;;;;;;26.86;37.42;101246.48;1781404;78;21046;-58
2021/08/23 09:09:26;;;;;;;14.25;1.75;;;;;;;26.85;37.40;101239.75;1782504;79;21119;-57
2021/08/23 09:12:00;;;;;;;16.62;2.20;;;;;;;26.86;37.55;101240.98;1783063;79;20946;-58
2021/08/23 09:14:29;;;;;;;10.93;1.90;;;;;;;26.90;36.88;101237.41;1778387;79;21047;-57
2021/08/23 09:17:05;;;;;;;6.58;1.70;;;;;;;26.84;36.15;101231.11;1788428;79;20996;-60
2021/08/23 09:19:34;;;;;;;21.37;2.70;;;;;;;26.84;36.13;101231.11;1779817;79;21037;-59
2021/08/23 09:22:08;;;;;;;21.20;2.00;;;;;;;26.88;37.03;101223.83;1783791;79;21135;-59
2021/08/23 09:24:37;;;;;;;17.23;2.30;;;;;;;26.98;36.18;101233.91;1772702;79;21454;-57
2021/08/23 09:27:11;;;;;;;10.55;1.85;;;;;;;26.99;35.70;101237.02;1787829;79;21025;-59
2021/08/23 09:29:59;;;;;;;12.10;1.70;;;;;;;26.97;35.22;101234.44;1764330;79;21578;-59
2021/08/23 09:32:32;;;;;;;15.98;1.70;;;;;;;26.90;34.62;101221.43;1791346;78;21044;-58
2021/08/23 09:34:59;;;;;;;13.22;2.22;;;;;;;26.83;34.83;101221.13;1790883;79;21052;-58
2021/08/23 09:37:29;;;;;;;4.17;1.90;;;;;;;26.87;35.73;101234.47;1796348;79;21096;-58
2021/08/23 09:39:56;;;;;;;18.42;2.35;;;;;;;26.95;35.71;101220.46;1786924;79;21478;-58
2021/08/23 09:42:26;;;;;;;6.30;1.85;;;;;;;27.02;37.09;101221.09;1765023;79;21103;-58
2021/08/23 09:44:55;;;;;;;9.70;2.02;;;;;;;27.07;36.16;101234.38;1799703;79;21493;-58
2021/08/23 09:47:29;;;;;;;4.47;1.70;;;;;;;27.06;34.23;101228.52;1804672;78;20960;-58
2021/08/23 09:49:56;;;;;;;6.90;1.70;;;;;;;27.04;33.66;101231.92;1808960;78;21763;-58
2021/08/23 09:52:33;;;;;;;5.37;1.70;;;;;;;27.00;33.42;101226.37;1803782;79;21046;-58
2021/08/23 09:55:09;;;;;;;4.28;2.05;;;;;;;27.04;32.63;101222.30;1787286;79;21081;-58
2021/08/23 09:57:41;;;;;;;2.17;1.40;;;;;;;27.01;32.42;101230.86;1799309;78;21135;-58
2021/08/23 10:00:14;;;;;;;2.92;1.55;;;;;;;27.05;32.50;101224.03;1809326;77;21088;-58
2021/08/23 10:02:46;;;;;;;3.55;1.60;;;;;;;27.07;32.60;101224.74;1795834;79;22107;-60
2021/08/23 10:05:17;;;;;;;5.62;1.60;;;;;;;27.09;32.48;101222.73;1801644;78;21784;-60
2021/08/23 10:07:45;;;;;;;8.48;1.90;;;;;;;27.12;34.53;101216.05;1807683;79;21142;-60
2021/08/23 10:10:12;;;;;;;5.83;1.65;;;;;;;27.16;34.93;101218.34;1798905;79;21029;-58
2021/08/23 10:12:41;;;;;;;6.97;1.85;;;;;;;27.23;33.59;101225.50;1808404;79;21534;-58
2021/08/23 10:15:08;;;;;;;4.22;1.82;;;;;;;27.25;33.51;101213.82;1798378;78;21145;-59
2021/08/23 10:17:37;;;;;;;4.05;1.57;;;;;;;27.30;33.72;101222.97;1804787;79;21519;-59
2021/08/23 10:20:09;;;;;;;6.28;1.75;;;;;;;27.35;34.04;101228.03;1796022;78;21040;-58
2021/08/23 10:22:39;;;;;;;10.68;1.87;;;;;;;27.37;33.85;101220.48;1806889;78;20977;-59
2021/08/23 10:25:07;;;;;;;5.95;1.70;;;;;;;27.39;33.08;101221.19;1795179;79;21110;-60
2021/08/23 10:27:35;;;;;;;3.25;1.95;;;;;;;27.37;33.16;101212.22;1803240;77;22195;-59
2021/08/23 10:30:03;;;;;;;8.58;1.92;;;;;;;27.37;32.92;101213.11;1797384;79;21095;-60
2021/08/23 10:32:40;;;;;;;4.92;2.05;;;;;;;27.36;33.34;101211.38;1806969;78;20992;-59
2021/08/23 10:35:28;;;;;;;5.55;1.62;;;;;;;27.33;33.07;101207.55;1792140;79;21112;-60
2021/08/23 10:37:53;;;;;;;6.10;1.87;;;;;;;27.31;32.93;101207.69;1793480;77;21305;-60
2021/08/23 10:40:34;;;;;;;5.28;1.60;;;;;;;27.34;32.84;101212.04;1807656;79;21158;-59
2021/08/23 10:43:18;;;;;;;6.28;1.70;;;;;;;27.39;32.83;101208.31;1788917;79;20968;-59
2021/08/23 10:45:47;;;;;;;6.00;1.85;;;;;;;27.44;33.37;101207.86;1778534;79;21033;-58
2021/08/23 10:48:16;;;;;;;2.27;1.40;;;;;;;27.44;33.33;101205.95;1791763;79;21138;-58
2021/08/23 10:50:43;;;;;;;5.25;1.95;;;;;;;27.46;32.95;101198.41;1800869;79;21040;-59
2021/08/23 10:53:13;;;;;;;4.80;1.37;;;;;;;27.44;32.40;101200.45;1786878;79;21518;-59
2021/08/23 10:55:40;;;;;;;2.83;1.65;;;;;;;27.40;32.96;101194.91;1784465;78;20930;-59
2021/08/23 10:58:09;;;;;;;2.22;1.35;;;;;;;27.40;32.87;101193.52;1794168;78;21045;-59
2021/08/23 11:00:41;;;;;;;3.77;1.70;;;;;;;27.48;31.45;101204.27;1790037;79;20972;-58
2021/08/23 11:03:10;;;;;;;6.33;1.67;;;;;;;27.48;30.70;101196.00;1788837;79;22032;-58
2021/08/23 11:05:39;;;;;;;2.50;1.57;;;;;;;27.41;30.57;101204.01;1791782;78;21137;-57
2021/08/23 11:08:11;;;;;;;4.58;1.50;;;;;;;27.33;30.57;101199.30;1789521;79;20953;-59
2021/08/23 11:10:39;;;;;;;4.58;1.72;;;;;;;27.27;31.46;101189.76;1788130;79;21558;-59
2021/08/23 11:13:18;;;;;;;5.80;1.52;;;;;;;27.28;31.82;101194.73;1786268;79;21064;-59
2021/08/23 11:15:46;;;;;;;5.65;1.62;;;;;;;27.34;32.80;101191.39;1798306;79;21091;-60
2021/08/23 11:18:16;;;;;;;3.33;1.60;;;;;;;27.35;31.25;101190.38;1776712;79;21550;-58
2021/08/23 11:20:52;;;;;;;2.75;1.35;;;;;;;27.32;31.45;101186.55;1794276;79;21427;-58
2021/08/23 11:23:24;;;;;;;3.50;1.45;;;;;;;27.31;31.42;101182.08;1798787;78;21033;-58
2021/08/23 11:25:54;;;;;;;3.30;1.32;;;;;;;27.35;31.67;101185.36;1784783;79;20929;-58